Time;durP1;ratioP1;P1;durP2;ratioP2;P2;SDS_P1;SDS_P2;PMS_P1;PMS_P2;Temp;Humidity;BMP_temperature;BMP_pressure;BME280_temperature;BME280_humidity;BME280_pressure;Samples;Min_cycle;Max_cycle;Signal;HPM_P1;HPM_P2
2021/04/20 00:00:49;;;;;;;15.20;9.65;;;;;;;;;;6063298;29;20059;-70
2021/04/20 00:03:50;;;;;;;14.68;10.07;;;;;;;;;;6062425;29;20193;-69
2021/04/20 00:06:51;;;;;;;17.58;10.10;;;;;;;;;;6075127;29;20049;-69
2021/04/20 00:09:53;;;;;;;16.70;10.27;;;;;;;;;;6070549;29;20761;-70
2021/04/20 00:12:54;;;;;;;14.88;9.85;;;;;;;;;;6074313;29;20147;-69
2021/04/20 00:15:55;;;;;;;15.02;9.50;;;;;;;;;;6065631;29;20057;-71
2021/04/20 00:18:57;;;;;;;14.30;9.60;;;;;;;;;;6060564;29;20397;-68
2021/04/20 00:21:58;;;;;;;13.95;9.98;;;;;;;;;;6061455;29;20048;-72
2021/04/20 00:25:00;;;;;;;18.30;9.80;;;;;;;;;;6070131;29;20064;-70
2021/04/20 00:28:01;;;;;;;14.40;9.65;;;;;;;;;;6062356;29;20065;-69
2021/04/20 00:31:02;;;;;;;10.88;8.77;;;;;;;;;;6060009;29;20069;-70
2021/04/20 00:34:03;;;;;;;12.15;8.32;;;;;;;;;;6060287;29;20056;-71
2021/04/20 00:37:04;;;;;;;14.20;8.98;;;;;;;;;;6069911;29;20616;-73
2021/04/20 00:40:08;;;;;;;13.27;8.45;;;;;;;;;;6073056;29;20543;-69
2021/04/20 00:43:10;;;;;;;12.80;8.27;;;;;;;;;;6075698;29;20411;-71
2021/04/20 00:46:13;;;;;;;12.02;8.43;;;;;;;;;;6071674;29;20052;-69
2021/04/20 00:49:14;;;;;;;11.63;8.43;;;;;;;;;;6072154;29;20048;-69
2021/04/20 00:52:16;;;;;;;13.05;8.30;;;;;;;;;;6068790;29;20049;-69
2021/04/20 00:55:18;;;;;;;13.20;9.02;;;;;;;;;;6069292;29;20144;-69
2021/04/20 00:58:19;;;;;;;11.63;8.60;;;;;;;;;;6078558;29;20067;-69
2021/04/20 01:04:33;;;;;;;11.07;7.65;;;;;;;;;;6074299;29;20049;-72
2021/04/20 01:07:34;;;;;;;12.35;8.65;;;;;;;;;;6068337;29;20045;-73
2021/04/20 01:10:40;;;;;;;11.63;8.25;;;;;;;;;;6078813;29;20045;-73
2021/04/20 01:13:41;;;;;;;14.48;8.73;;;;;;;;;;6085230;29;20065;-72
2021/04/20 01:16:43;;;;;;;11.13;8.43;;;;;;;;;;6087063;29;20060;-72
2021/04/20 01:19:44;;;;;;;11.38;7.90;;;;;;;;;;6088446;29;20056;-72
2021/04/20 01:22:46;;;;;;;12.77;8.10;;;;;;;;;;6073999;29;20057;-73
2021/04/20 01:25:51;;;;;;;12.60;8.18;;;;;;;;;;6081030;29;20163;-73
2021/04/20 01:28:52;;;;;;;11.45;8.35;;;;;;;;;;6082724;29;20072;-73
2021/04/20 01:31:53;;;;;;;13.48;8.23;;;;;;;;;;6079102;29;20044;-72
2021/04/20 01:34:56;;;;;;;16.17;11.05;;;;;;;;;;6087318;29;20063;-72
2021/04/20 01:37:57;;;;;;;19.08;13.23;;;;;;;;;;6083275;29;20053;-73
2021/04/20 01:40:59;;;;;;;21.90;14.43;;;;;;;;;;6080688;29;20066;-72
2021/04/20 01:44:03;;;;;;;22.60;15.13;;;;;;;;;;6085144;29;20052;-73
2021/04/20 01:47:04;;;;;;;23.25;15.63;;;;;;;;;;6087472;29;20084;-73
2021/04/20 01:50:07;;;;;;;23.98;17.23;;;;;;;;;;6086323;29;20055;-73
2021/04/20 01:53:08;;;;;;;28.08;18.75;;;;;;;;;;6086557;29;20057;-73
2021/04/20 01:56:11;;;;;;;27.98;18.27;;;;;;;;;;6088470;29;20109;-73
2021/04/20 01:59:13;;;;;;;28.00;18.85;;;;;;;;;;6075618;29;20053;-73
2021/04/20 02:02:14;;;;;;;28.05;19.52;;;;;;;;;;6078941;29;20052;-73
2021/04/20 02:05:16;;;;;;;29.02;18.90;;;;;;;;;;6078006;29;20128;-73
2021/04/20 02:08:18;;;;;;;26.08;18.30;;;;;;;;;;6079530;29;20040;-73
2021/04/20 02:11:23;;;;;;;28.30;19.88;;;;;;;;;;6087367;29;20052;-73
2021/04/20 02:14:25;;;;;;;28.33;20.00;;;;;;;;;;6085269;29;20085;-73
2021/04/20 02:17:26;;;;;;;28.30;20.05;;;;;;;;;;6083080;29;20108;-73
2021/04/20 02:20:29;;;;;;;26.65;18.27;;;;;;;;;;6085209;29;20076;-72
2021/04/20 02:23:30;;;;;;;27.48;18.60;;;;;;;;;;6083781;29;20060;-73
2021/04/20 02:26:34;;;;;;;27.10;19.33;;;;;;;;;;6092951;29;20049;-73
2021/04/20 02:29:35;;;;;;;31.83;20.17;;;;;;;;;;6084196;29;20053;-72
2021/04/20 02:32:37;;;;;;;30.70;19.92;;;;;;;;;;6088352;29;20057;-72
2021/04/20 02:35:39;;;;;;;30.67;20.48;;;;;;;;;;6086971;29;20064;-73
2021/04/20 02:38:45;;;;;;;32.42;21.17;;;;;;;;;;6078121;29;20112;-72
2021/04/20 02:41:49;;;;;;;28.50;20.10;;;;;;;;;;6080511;29;20060;-72
2021/04/20 02:44:50;;;;;;;28.83;20.27;;;;;;;;;;6080841;29;20076;-73
2021/04/20 02:47:52;;;;;;;30.65;19.90;;;;;;;;;;6081464;29;20072;-72
2021/04/20 02:50:54;;;;;;;29.98;21.33;;;;;;;;;;6086541;29;20041;-73
2021/04/20 02:53:55;;;;;;;28.40;19.83;;;;;;;;;;6083419;29;20069;-73
2021/04/20 02:56:59;;;;;;;29.48;20.77;;;;;;;;;;6071213;29;20064;-73
2021/04/20 03:00:01;;;;;;;27.88;20.70;;;;;;;;;;6090372;29;20059;-73
2021/04/20 03:03:02;;;;;;;31.23;21.90;;;;;;;;;;6087630;29;20055;-73
2021/04/20 03:06:05;;;;;;;30.33;20.75;;;;;;;;;;6079742;29;20067;-73
2021/04/20 03:09:07;;;;;;;31.80;21.25;;;;;;;;;;6078154;29;20041;-73
2021/04/20 03:12:12;;;;;;;27.98;20.48;;;;;;;;;;6068101;29;20105;-73
2021/04/20 03:15:14;;;;;;;32.83;21.27;;;;;;;;;;6076805;29;20076;-73
2021/04/20 03:18:16;;;;;;;31.33;21.98;;;;;;;;;;6083444;29;20087;-72
2021/04/20 03:21:17;;;;;;;31.92;21.77;;;;;;;;;;6074067;29;20045;-72
2021/04/20 03:25:16;;;;;;;31.08;21.13;;;;;;;;;;6079804;29;20142;-73
2021/04/20 03:28:18;;;;;;;33.33;20.88;;;;;;;;;;6084736;29;20751;-73
2021/04/20 03:31:19;;;;;;;30.42;22.50;;;;;;;;;;6083897;29;20041;-73
2021/04/20 03:34:24;;;;;;;30.52;22.02;;;;;;;;;;6088233;29;20040;-73
2021/04/20 03:37:30;;;;;;;30.73;21.33;;;;;;;;;;6083928;29;20053;-73
2021/04/20 03:40:33;;;;;;;35.30;22.48;;;;;;;;;;6080122;29;20057;-73
2021/04/20 03:43:37;;;;;;;32.33;21.35;;;;;;;;;;6082521;29;20109;-72
2021/04/20 03:46:42;;;;;;;31.55;21.25;;;;;;;;;;6084849;29;20065;-72
2021/04/20 03:49:45;;;;;;;28.95;20.38;;;;;;;;;;6082042;29;20063;-73
2021/04/20 03:52:48;;;;;;;31.63;21.02;;;;;;;;;;6079007;29;20075;-73
2021/04/20 03:55:50;;;;;;;32.70;21.60;;;;;;;;;;6082191;29;20048;-73
2021/04/20 03:58:54;;;;;;;31.80;21.02;;;;;;;;;;6089544;29;20045;-72
2021/04/20 04:01:57;;;;;;;31.30;20.38;;;;;;;;;;6086994;29;20068;-72
2021/04/20 04:04:59;;;;;;;30.60;19.75;;;;;;;;;;6087097;29;20052;-73
2021/04/20 04:08:01;;;;;;;30.88;20.40;;;;;;;;;;6077917;29;20049;-72
2021/04/20 04:11:03;;;;;;;29.55;20.40;;;;;;;;;;6081471;29;20052;-73
2021/04/20 04:14:06;;;;;;;31.63;20.35;;;;;;;;;;6080106;29;20126;-72
2021/04/20 04:17:08;;;;;;;29.35;19.33;;;;;;;;;;6085331;29;20053;-72
2021/04/20 04:20:11;;;;;;;30.83;19.30;;;;;;;;;;6083032;29;20060;-72
2021/04/20 04:23:14;;;;;;;28.67;19.17;;;;;;;;;;6080913;29;20045;-73
2021/04/20 04:26:17;;;;;;;27.60;18.05;;;;;;;;;;6084054;29;20048;-73
2021/04/20 04:29:20;;;;;;;26.30;18.58;;;;;;;;;;6089413;29;20376;-72
2021/04/20 04:32:22;;;;;;;27.83;18.30;;;;;;;;;;6083454;29;20045;-72
2021/04/20 04:35:23;;;;;;;27.77;17.42;;;;;;;;;;6078122;29;20045;-72
2021/04/20 04:38:25;;;;;;;26.33;17.90;;;;;;;;;;6076121;29;20068;-73
2021/04/20 04:41:26;;;;;;;27.20;18.70;;;;;;;;;;6077154;29;20036;-72
2021/04/20 04:44:28;;;;;;;26.73;17.80;;;;;;;;;;6077178;29;20052;-72
2021/04/20 04:47:30;;;;;;;27.10;17.25;;;;;;;;;;6073325;29;20052;-72
2021/04/20 04:50:31;;;;;;;28.20;19.08;;;;;;;;;;6075664;29;20072;-72
2021/04/20 04:53:33;;;;;;;28.23;19.40;;;;;;;;;;6084625;29;20077;-73
2021/04/20 04:56:35;;;;;;;28.98;18.35;;;;;;;;;;6085975;29;20064;-72
2021/04/20 04:59:38;;;;;;;30.10;19.00;;;;;;;;;;6086064;29;20041;-72
2021/04/20 05:02:40;;;;;;;28.95;17.63;;;;;;;;;;6077666;29;20437;-73
2021/04/20 05:05:41;;;;;;;28.27;17.30;;;;;;;;;;6076387;29;20044;-72
2021/04/20 05:08:43;;;;;;;30.20;18.98;;;;;;;;;;6077881;29;20049;-72
2021/04/20 05:11:45;;;;;;;31.05;17.98;;;;;;;;;;6081994;29;20562;-72
2021/04/20 05:14:47;;;;;;;29.05;18.05;;;;;;;;;;6079466;29;20052;-72
2021/04/20 05:17:49;;;;;;;28.83;17.67;;;;;;;;;;6089931;29;20048;-72
2021/04/20 05:20:50;;;;;;;29.75;18.00;;;;;;;;;;6079426;29;20053;-72
2021/04/20 05:23:52;;;;;;;26.40;18.02;;;;;;;;;;6080280;29;20056;-72
2021/04/20 05:26:54;;;;;;;32.67;19.00;;;;;;;;;;6073471;29;20049;-72
2021/04/20 05:29:56;;;;;;;28.88;18.50;;;;;;;;;;6079947;29;20118;-72
2021/04/20 05:32:58;;;;;;;35.95;18.73;;;;;;;;;;6079220;29;20113;-72
2021/04/20 05:36:06;;;;;;;31.92;19.17;;;;;;;;;;6079205;29;20060;-71
2021/04/20 05:39:16;;;;;;;35.55;20.20;;;;;;;;;;6077426;29;20037;-73
2021/04/20 05:42:17;;;;;;;28.88;18.13;;;;;;;;;;6080176;29;20045;-72
2021/04/20 05:45:19;;;;;;;30.20;18.92;;;;;;;;;;6074085;29;20072;-73
2021/04/20 05:48:21;;;;;;;30.08;19.17;;;;;;;;;;6087575;29;20048;-72
2021/04/20 05:51:23;;;;;;;29.88;20.25;;;;;;;;;;6079517;29;20053;-73
2021/04/20 05:54:24;;;;;;;29.60;19.45;;;;;;;;;;6086573;29;20096;-73
2021/04/20 05:57:26;;;;;;;31.20;19.90;;;;;;;;;;6079510;29;20086;-72
2021/04/20 06:00:28;;;;;;;27.90;19.10;;;;;;;;;;6076551;29;20048;-72
2021/04/20 06:03:29;;;;;;;26.33;17.95;;;;;;;;;;6079526;29;20060;-73
2021/04/20 06:06:33;;;;;;;29.92;19.30;;;;;;;;;;6076940;29;20072;-74
2021/04/20 06:09:34;;;;;;;28.58;17.70;;;;;;;;;;6086152;29;20097;-72
2021/04/20 06:12:36;;;;;;;29.20;18.65;;;;;;;;;;6089600;29;20067;-73
2021/04/20 06:15:38;;;;;;;28.63;18.70;;;;;;;;;;6091963;29;20064;-72
2021/04/20 06:18:41;;;;;;;33.60;20.05;;;;;;;;;;6066400;29;20037;-72
2021/04/20 06:21:42;;;;;;;30.50;17.95;;;;;;;;;;6079285;29;20049;-72
2021/04/20 06:24:43;;;;;;;27.83;19.85;;;;;;;;;;6075533;29;20045;-73
2021/04/20 06:27:46;;;;;;;29.30;19.40;;;;;;;;;;6075286;29;20103;-72
2021/04/20 06:30:48;;;;;;;32.38;20.38;;;;;;;;;;6083583;29;20051;-72
2021/04/20 06:33:49;;;;;;;33.03;20.00;;;;;;;;;;6081498;29;20080;-72
2021/04/20 06:36:51;;;;;;;33.50;20.15;;;;;;;;;;6070807;29;20045;-76
2021/04/20 06:39:52;;;;;;;32.05;19.55;;;;;;;;;;6069624;29;20048;-72
2021/04/20 06:42:56;;;;;;;29.85;20.70;;;;;;;;;;6067889;29;20112;-71
2021/04/20 06:46:01;;;;;;;31.70;19.50;;;;;;;;;;6058245;29;20048;-72
2021/04/20 06:49:06;;;;;;;27.60;19.60;;;;;;;;;;6065681;29;20115;-72
2021/04/20 06:52:07;;;;;;;;;;;;;;;;;;6064023;29;20071;-71
2021/04/20 06:55:11;;;;;;;28.48;19.90;;;;;;;;;;6070851;29;19931;-72
2021/04/20 06:58:19;;;;;;;30.40;20.30;;;;;;;;;;6067939;29;20060;-72
2021/04/20 07:01:32;;;;;;;28.15;19.70;;;;;;;;;;6069284;29;20053;-72
2021/04/20 07:04:41;;;;;;;28.25;20.67;;;;;;;;;;6072034;29;20053;-72
2021/04/20 07:07:52;;;;;;;28.35;21.25;;;;;;;;;;6070434;29;20075;-73
2021/04/20 07:10:54;;;;;;;32.90;21.25;;;;;;;;;;6076599;29;20063;-73
2021/04/20 07:13:58;;;;;;;29.80;20.20;;;;;;;;;;6074796;29;20060;-72
2021/04/20 07:17:23;;;;;;;28.50;18.98;;;;;;;;;;6077038;29;20053;-73
2021/04/20 07:20:36;;;;;;;28.00;19.33;;;;;;;;;;6063568;29;20507;-72
2021/04/20 07:24:04;;;;;;;30.88;19.15;;;;;;;;;;6063442;29;20067;-72
2021/04/20 07:27:18;;;;;;;26.58;18.08;;;;;;;;;;6037598;29;20061;-73
2021/04/20 07:30:24;;;;;;;28.52;18.60;;;;;;;;;;6061748;29;20049;-72
2021/04/20 07:33:35;;;;;;;27.58;18.20;;;;;;;;;;6060013;29;20088;-72
2021/04/20 07:36:44;;;;;;;26.85;18.00;;;;;;;;;;6060924;29;20061;-72
2021/04/20 07:39:52;;;;;;;27.88;17.77;;;;;;;;;;6059107;29;20052;-72
2021/04/20 07:43:05;;;;;;;25.30;18.20;;;;;;;;;;6067646;29;20056;-73
2021/04/20 07:46:10;;;;;;;26.38;17.67;;;;;;;;;;6067541;29;20087;-73
2021/04/20 07:49:16;;;;;;;25.02;17.73;;;;;;;;;;6068747;29;20080;-73
2021/04/20 07:52:30;;;;;;;29.95;18.35;;;;;;;;;;6068441;29;20171;-73
2021/04/20 07:55:33;;;;;;;25.10;18.80;;;;;;;;;;6068347;29;20040;-72
2021/04/20 07:58:40;;;;;;;32.63;18.98;;;;;;;;;;6068889;29;20072;-73
2021/04/20 08:02:00;;;;;;;27.10;18.83;;;;;;;;;;6069040;29;20048;-73
2021/04/20 08:05:09;;;;;;;25.92;19.10;;;;;;;;;;6070455;29;20072;-73
2021/04/20 08:08:13;;;;;;;25.48;18.77;;;;;;;;;;6072438;29;20149;-73
2021/04/20 08:11:21;;;;;;;28.95;19.02;;;;;;;;;;6071989;29;20045;-73
2021/04/20 08:14:26;;;;;;;27.83;19.10;;;;;;;;;;6068340;29;20131;-73
2021/04/20 08:17:32;;;;;;;28.80;19.98;;;;;;;;;;6064247;29;20163;-73
2021/04/20 08:20:36;;;;;;;29.05;21.05;;;;;;;;;;6061978;29;20048;-73
2021/04/20 08:23:41;;;;;;;27.83;19.58;;;;;;;;;;6059937;29;20060;-73
2021/04/20 08:26:46;;;;;;;29.80;20.73;;;;;;;;;;6060244;29;20088;-73
2021/04/20 08:29:48;;;;;;;28.52;20.23;;;;;;;;;;6061496;29;20048;-73
2021/04/20 08:32:51;;;;;;;29.27;20.27;;;;;;;;;;6057558;29;20083;-73
2021/04/20 08:35:56;;;;;;;30.13;21.70;;;;;;;;;;6059521;29;20545;-73
2021/04/20 08:39:04;;;;;;;28.40;20.83;;;;;;;;;;6058311;29;20063;-72
2021/04/20 08:42:11;;;;;;;30.85;20.15;;;;;;;;;;6060850;29;20045;-74
2021/04/20 08:45:20;;;;;;;30.80;21.92;;;;;;;;;;6062199;29;20140;-73
2021/04/20 08:48:26;;;;;;;30.08;21.40;;;;;;;;;;6063351;29;20111;-74
2021/04/20 08:51:32;;;;;;;30.15;21.05;;;;;;;;;;6060379;29;20136;-73
2021/04/20 08:54:47;;;;;;;27.05;19.25;;;;;;;;;;6062743;29;20840;-73
2021/04/20 08:58:02;;;;;;;27.27;19.52;;;;;;;;;;6061812;29;20041;-74
2021/04/20 09:01:10;;;;;;;25.92;19.92;;;;;;;;;;6059816;29;20056;-73
2021/04/20 09:04:17;;;;;;;24.00;18.00;;;;;;;;;;6059905;29;20637;-73
2021/04/20 09:07:29;;;;;;;27.50;18.63;;;;;;;;;;6064369;29;20599;-74
2021/04/20 09:10:32;;;;;;;25.77;18.10;;;;;;;;;;6069556;29;20112;-73
2021/04/20 09:13:39;;;;;;;24.38;17.83;;;;;;;;;;6064523;29;20104;-73
2021/04/20 09:16:44;;;;;;;26.13;18.85;;;;;;;;;;6063591;29;20056;-73
2021/04/20 09:19:49;;;;;;;27.50;18.23;;;;;;;;;;6061157;29;20105;-73
2021/04/20 09:22:55;;;;;;;25.75;17.83;;;;;;;;;;6034677;29;20064;-73
2021/04/20 09:26:05;;;;;;;23.95;17.13;;;;;;;;;;6059296;29;20057;-74
2021/04/20 09:29:14;;;;;;;24.70;17.90;;;;;;;;;;6061179;29;20048;-72
2021/04/20 09:32:20;;;;;;;23.25;16.20;;;;;;;;;;6058980;29;20064;-72
2021/04/20 09:35:21;;;;;;;23.58;16.25;;;;;;;;;;6061642;29;20052;-71
2021/04/20 09:38:24;;;;;;;29.05;15.65;;;;;;;;;;6058955;29;20205;-73
2021/04/20 09:41:28;;;;;;;29.00;16.38;;;;;;;;;;6064270;29;20131;-70
2021/04/20 09:44:44;;;;;;;21.85;15.32;;;;;;;;;;6070500;29;20049;-74
2021/04/20 09:48:02;;;;;;;19.98;14.77;;;;;;;;;;6064395;29;20056;-72
2021/04/20 09:51:07;;;;;;;19.92;14.10;;;;;;;;;;6067437;29;20058;-72
2021/04/20 09:54:13;;;;;;;21.55;14.35;;;;;;;;;;6065508;29;20659;-73
2021/04/20 09:57:15;;;;;;;22.15;14.95;;;;;;;;;;6062536;29;20452;-73
2021/04/20 10:00:18;;;;;;;18.98;13.65;;;;;;;;;;6060865;29;20060;-73
2021/04/20 10:03:28;;;;;;;19.60;13.07;;;;;;;;;;6061236;29;20244;-75
2021/04/20 10:06:39;;;;;;;23.30;14.27;;;;;;;;;;6059605;29;20044;-74
2021/04/20 10:09:46;;;;;;;21.20;13.57;;;;;;;;;;6061329;29;20053;-73
2021/04/20 10:13:14;;;;;;;21.35;13.27;;;;;;;;;;6061118;29;20068;-73
2021/04/20 10:16:18;;;;;;;19.45;13.73;;;;;;;;;;6032280;29;20456;-73
2021/04/20 10:19:26;;;;;;;17.63;12.68;;;;;;;;;;6057423;29;20064;-73
2021/04/20 10:22:41;;;;;;;16.20;11.00;;;;;;;;;;6055493;29;20467;-74
2021/04/20 10:25:48;;;;;;;23.85;12.55;;;;;;;;;;6056675;29;20052;-73
2021/04/20 10:28:56;;;;;;;22.38;11.73;;;;;;;;;;6058427;29;20105;-73
2021/04/20 10:32:02;;;;;;;16.08;11.52;;;;;;;;;;6061586;29;20057;-73
2021/04/20 10:35:05;;;;;;;18.15;12.02;;;;;;;;;;6060680;29;20060;-73
2021/04/20 10:38:12;;;;;;;17.33;11.35;;;;;;;;;;6061092;29;20139;-73
2021/04/20 10:41:25;;;;;;;14.90;10.23;;;;;;;;;;6059756;29;20140;-73
2021/04/20 10:44:31;;;;;;;13.82;10.48;;;;;;;;;;6070556;29;20053;-73
2021/04/20 10:47:32;;;;;;;15.02;10.82;;;;;;;;;;6067090;29;20056;-73
2021/04/20 10:50:35;;;;;;;13.93;9.65;;;;;;;;;;6070714;29;20188;-72
2021/04/20 10:53:37;;;;;;;13.73;9.13;;;;;;;;;;6068156;29;20180;-73
2021/04/20 10:56:47;;;;;;;15.10;10.10;;;;;;;;;;6069508;29;20758;-73
2021/04/20 10:59:54;;;;;;;15.15;10.68;;;;;;;;;;6067212;29;20112;-73
2021/04/20 11:02:58;;;;;;;13.70;10.52;;;;;;;;;;6060643;29;20507;-75
2021/04/20 11:05:59;;;;;;;14.02;10.27;;;;;;;;;;6060381;29;21748;-73
2021/04/20 11:09:01;;;;;;;15.07;10.88;;;;;;;;;;6060071;29;20148;-74
2021/04/20 11:12:13;;;;;;;14.85;10.05;;;;;;;;;;6056892;29;20060;-70
2021/04/20 11:15:15;;;;;;;14.02;9.65;;;;;;;;;;6058355;29;20084;-73
2021/04/20 11:18:21;;;;;;;14.00;10.10;;;;;;;;;;6067081;29;20139;-73
2021/04/20 11:21:27;;;;;;;15.75;9.88;;;;;;;;;;6074593;29;20144;-73
2021/04/20 11:24:29;;;;;;;13.82;9.80;;;;;;;;;;6065058;29;20071;-74
2021/04/20 11:27:32;;;;;;;18.60;10.97;;;;;;;;;;6070019;29;20139;-73
2021/04/20 11:30:35;;;;;;;15.68;10.25;;;;;;;;;;6065980;29;20556;-74
2021/04/20 11:33:40;;;;;;;14.45;10.15;;;;;;;;;;6069675;29;20129;-77
2021/04/20 11:36:43;;;;;;;12.38;8.45;;;;;;;;;;6066889;29;20063;-74
2021/04/20 11:39:51;;;;;;;13.85;9.98;;;;;;;;;;6070537;29;20143;-74
2021/04/20 11:42:53;;;;;;;12.50;9.07;;;;;;;;;;6065825;29;20061;-75
2021/04/20 11:45:56;;;;;;;15.47;8.63;;;;;;;;;;6069922;29;20076;-74
2021/04/20 11:49:08;;;;;;;14.88;9.70;;;;;;;;;;6069445;29;20044;-74
2021/04/20 11:52:15;;;;;;;16.05;9.48;;;;;;;;;;6069531;29;20495;-74
2021/04/20 11:55:18;;;;;;;16.05;8.82;;;;;;;;;;6070911;29;20080;-74
2021/04/20 11:58:24;;;;;;;15.40;9.93;;;;;;;;;;6065433;29;20087;-74
2021/04/20 12:01:25;;;;;;;12.90;9.55;;;;;;;;;;6071187;29;20389;-73
2021/04/20 12:04:28;;;;;;;11.55;9.15;;;;;;;;;;6068432;29;20139;-74
2021/04/20 12:07:32;;;;;;;11.68;9.30;;;;;;;;;;6071036;29;20064;-74
2021/04/20 12:10:33;;;;;;;12.82;10.60;;;;;;;;;;6069336;29;20070;-74
2021/04/20 12:13:37;;;;;;;13.45;11.38;;;;;;;;;;6072378;29;20041;-74
2021/04/20 12:16:38;;;;;;;12.50;10.07;;;;;;;;;;6070193;29;20068;-74
2021/04/20 12:19:39;;;;;;;12.90;10.13;;;;;;;;;;6072820;29;20104;-74
2021/04/20 12:22:44;;;;;;;12.52;10.57;;;;;;;;;;6070798;29;20132;-74
2021/04/20 12:25:49;;;;;;;14.98;11.52;;;;;;;;;;6072301;29;20053;-73
2021/04/20 12:28:54;;;;;;;11.98;8.85;;;;;;;;;;6068732;29;20052;-74
2021/04/20 12:31:55;;;;;;;13.20;10.13;;;;;;;;;;6071038;29;20048;-73
2021/04/20 12:34:56;;;;;;;13.02;10.45;;;;;;;;;;6067699;29;20124;-74
2021/04/20 12:38:00;;;;;;;14.70;10.63;;;;;;;;;;6071625;29;20048;-74
2021/04/20 12:41:03;;;;;;;11.60;10.10;;;;;;;;;;6062579;29;20504;-74
2021/04/20 12:44:07;;;;;;;12.60;10.35;;;;;;;;;;6065227;29;20531;-74
2021/04/20 12:47:12;;;;;;;11.80;9.15;;;;;;;;;;6065658;29;20593;-74
2021/04/20 12:50:16;;;;;;;15.77;9.85;;;;;;;;;;6055386;29;20052;-74
2021/04/20 12:53:20;;;;;;;11.20;8.77;;;;;;;;;;6060748;29;20146;-74
2021/04/20 12:56:24;;;;;;;7.85;7.03;;;;;;;;;;6071377;29;20507;-74
2021/04/20 12:59:28;;;;;;;9.52;7.05;;;;;;;;;;6065526;29;20523;-73
2021/04/20 13:02:29;;;;;;;10.32;7.35;;;;;;;;;;6057001;29;20041;-73
2021/04/20 13:05:31;;;;;;;6.80;6.10;;;;;;;;;;6063878;29;20087;-74
2021/04/20 13:08:33;;;;;;;8.52;4.88;;;;;;;;;;6064445;29;20080;-74
2021/04/20 13:11:37;;;;;;;8.90;7.10;;;;;;;;;;6055751;29;20091;-74
2021/04/20 13:14:40;;;;;;;10.27;6.72;;;;;;;;;;6061855;29;20139;-73
2021/04/20 13:17:43;;;;;;;9.95;6.60;;;;;;;;;;6060655;29;20080;-73
2021/04/20 13:20:46;;;;;;;9.05;5.53;;;;;;;;;;6064373;29;20048;-74
2021/04/20 13:23:48;;;;;;;6.70;5.55;;;;;;;;;;6065543;29;20101;-74
2021/04/20 13:26:50;;;;;;;10.05;5.10;;;;;;;;;;6066320;29;20055;-74
2021/04/20 13:29:53;;;;;;;7.53;5.88;;;;;;;;;;6066037;29;20067;-75
2021/04/20 13:32:55;;;;;;;;;;;;;;;;;;6067373;29;20484;-74
2021/04/20 13:35:58;;;;;;;6.70;4.93;;;;;;;;;;6072124;29;20038;-74
2021/04/20 13:39:01;;;;;;;5.50;4.93;;;;;;;;;;6070346;29;20048;-73
2021/04/20 13:42:06;;;;;;;7.00;5.53;;;;;;;;;;6070087;29;20053;-75
2021/04/20 13:45:10;;;;;;;7.75;5.70;;;;;;;;;;6071694;29;20135;-74
2021/04/20 13:48:11;;;;;;;9.25;7.18;;;;;;;;;;6068656;29;20061;-74
2021/04/20 13:51:13;;;;;;;6.82;5.90;;;;;;;;;;6060276;29;20139;-74
2021/04/20 13:54:14;;;;;;;7.68;5.63;;;;;;;;;;6057648;29;20060;-73
2021/04/20 13:57:16;;;;;;;6.68;5.80;;;;;;;;;;6060753;29;20132;-74
2021/04/20 14:00:20;;;;;;;8.50;6.75;;;;;;;;;;6064965;29;20135;-74
2021/04/20 14:03:23;;;;;;;6.68;5.10;;;;;;;;;;6065422;29;20072;-73
2021/04/20 14:06:27;;;;;;;6.97;6.03;;;;;;;;;;6066743;29;20162;-74
2021/04/20 14:09:33;;;;;;;8.25;5.47;;;;;;;;;;6060925;29;20555;-74
2021/04/20 14:12:42;;;;;;;6.88;5.53;;;;;;;;;;6067135;29;20169;-73
2021/04/20 14:15:44;;;;;;;6.47;4.97;;;;;;;;;;6066050;29;20159;-72
2021/04/20 14:18:51;;;;;;;8.25;5.18;;;;;;;;;;6066183;29;20674;-73
2021/04/20 14:21:59;;;;;;;6.03;5.28;;;;;;;;;;6066603;29;20115;-73
2021/04/20 14:25:04;;;;;;;5.35;4.68;;;;;;;;;;6051084;29;20048;-73
2021/04/20 14:28:06;;;;;;;32.00;5.00;;;;;;;;;;6063999;29;20060;-73
2021/04/20 14:31:08;;;;;;;13.02;4.82;;;;;;;;;;6062849;29;20056;-73
2021/04/20 14:34:09;;;;;;;6.22;5.28;;;;;;;;;;6062578;29;20076;-73
2021/04/20 14:37:11;;;;;;;56.47;7.20;;;;;;;;;;6066369;29;20080;-74
2021/04/20 14:40:15;;;;;;;67.90;8.25;;;;;;;;;;6060670;29;20048;-72
2021/04/20 14:43:18;;;;;;;14.63;5.68;;;;;;;;;;6063064;29;20507;-73
2021/04/20 14:46:21;;;;;;;89.28;10.02;;;;;;;;;;6060942;29;20099;-73
2021/04/20 14:49:24;;;;;;;88.15;7.22;;;;;;;;;;6063487;29;20083;-73
2021/04/20 14:52:27;;;;;;;17.10;5.05;;;;;;;;;;6062745;29;20072;-74
2021/04/20 14:55:29;;;;;;;11.18;5.05;;;;;;;;;;6059064;29;20519;-73
2021/04/20 14:58:32;;;;;;;8.88;5.00;;;;;;;;;;6062176;29;20096;-74
2021/04/20 15:01:35;;;;;;;10.90;5.57;;;;;;;;;;6062491;29;20055;-74
2021/04/20 15:04:37;;;;;;;7.60;5.35;;;;;;;;;;6064665;29;20089;-73
2021/04/20 15:07:42;;;;;;;8.80;4.63;;;;;;;;;;6064184;29;20055;-74
2021/04/20 15:10:47;;;;;;;6.32;4.50;;;;;;;;;;6063328;29;20049;-75
2021/04/20 15:13:52;;;;;;;7.55;5.07;;;;;;;;;;6070947;29;20048;-73
2021/04/20 15:16:57;;;;;;;7.75;4.68;;;;;;;;;;6064661;29;20131;-74
2021/04/20 15:19:59;;;;;;;8.60;4.70;;;;;;;;;;6065041;29;20456;-74
2021/04/20 15:23:02;;;;;;;10.50;4.57;;;;;;;;;;6064345;29;20088;-74
2021/04/20 15:26:04;;;;;;;11.77;5.45;;;;;;;;;;6061782;29;20519;-73
2021/04/20 15:29:07;;;;;;;9.98;6.00;;;;;;;;;;6069405;29;20056;-73
2021/04/20 15:32:10;;;;;;;;;;;;;;;;;;6069549;29;20140;-73
2021/04/20 15:35:13;;;;;;;7.23;4.50;;;;;;;;;;6070307;29;19993;-73
2021/04/20 15:38:23;;;;;;;;;;;;;;;;;;6069713;29;20056;-73
2021/04/20 15:41:26;;;;;;;15.20;4.63;;;;;;;;;;6066396;29;19971;-74
2021/04/20 15:44:27;;;;;;;;;;;;;;;;;;6071300;29;20117;-73
2021/04/20 15:47:29;;;;;;;7.68;4.68;;;;;;;;;;6074529;29;19928;-75
2021/04/20 15:50:32;;;;;;;5.40;4.38;;;;;;;;;;6067729;29;20608;-73
2021/04/20 15:53:36;;;;;;;8.68;5.32;;;;;;;;;;6058743;29;20199;-73
2021/04/20 15:56:41;;;;;;;5.20;4.20;;;;;;;;;;6059196;29;20060;-72
2021/04/20 15:59:44;;;;;;;6.38;4.55;;;;;;;;;;6071247;29;20433;-73
2021/04/20 16:02:52;;;;;;;8.65;5.07;;;;;;;;;;6060999;29;20056;-72
2021/04/20 16:06:00;;;;;;;7.40;5.35;;;;;;;;;;6068969;29;20077;-71
2021/04/20 16:09:02;;;;;;;8.30;4.65;;;;;;;;;;6070305;29;20037;-72
2021/04/20 16:12:05;;;;;;;22.00;6.40;;;;;;;;;;6069918;29;20079;-70
2021/04/20 16:15:08;;;;;;;25.57;5.67;;;;;;;;;;6066439;29;20499;-71
2021/04/20 16:18:14;;;;;;;17.33;5.70;;;;;;;;;;6074007;29;20560;-72
2021/04/20 16:21:15;;;;;;;8.02;4.78;;;;;;;;;;6077260;29;20136;-71
2021/04/20 16:24:21;;;;;;;10.85;5.30;;;;;;;;;;6072053;29;20128;-72
2021/04/20 16:27:26;;;;;;;6.80;5.00;;;;;;;;;;6065205;29;20450;-72
2021/04/20 16:30:29;;;;;;;14.27;5.38;;;;;;;;;;6072054;29;20052;-71
2021/04/20 16:33:31;;;;;;;11.23;4.82;;;;;;;;;;6065527;29;20147;-72
2021/04/20 16:36:35;;;;;;;10.07;5.00;;;;;;;;;;6069105;29;20136;-73
2021/04/20 16:39:41;;;;;;;;;;;;;;;;;;6074112;29;20060;-72
2021/04/20 16:43:15;;;;;;;13.60;5.15;;;;;;;;;;6074844;29;19963;-72
2021/04/20 16:46:19;;;;;;;6.25;4.70;;;;;;;;;;6059650;29;20079;-72
2021/04/20 16:49:38;;;;;;;7.40;4.72;;;;;;;;;;6070725;29;20048;-72
2021/04/20 16:52:45;;;;;;;6.53;5.13;;;;;;;;;;6071102;29;20547;-72
2021/04/20 16:56:00;;;;;;;5.88;4.07;;;;;;;;;;6072027;29;20103;-72
2021/04/20 16:59:24;;;;;;;9.20;5.15;;;;;;;;;;6066779;29;20148;-72
2021/04/20 17:02:33;;;;;;;6.45;4.90;;;;;;;;;;6064853;29;20068;-72
2021/04/20 17:05:49;;;;;;;6.55;5.03;;;;;;;;;;6079554;29;20048;-72
2021/04/20 17:08:56;;;;;;;9.00;4.32;;;;;;;;;;6064218;29;20045;-72
2021/04/20 17:12:05;;;;;;;8.43;4.80;;;;;;;;;;6058220;29;20049;-72
2021/04/20 17:15:38;;;;;;;9.93;4.90;;;;;;;;;;6048665;29;20052;-72
2021/04/20 17:19:05;;;;;;;7.95;5.38;;;;;;;;;;6025585;29;20140;-71
2021/04/20 17:22:24;;;;;;;7.70;4.50;;;;;;;;;;6058028;29;20064;-72
2021/04/20 17:25:35;;;;;;;5.97;4.40;;;;;;;;;;6063942;29;20120;-71
2021/04/20 17:28:51;;;;;;;9.15;5.10;;;;;;;;;;6059621;29;20202;-72
2021/04/20 17:31:58;;;;;;;8.07;4.70;;;;;;;;;;6062250;29;20054;-72
2021/04/20 17:35:01;;;;;;;8.18;5.15;;;;;;;;;;6039491;29;20053;-72
2021/04/20 17:38:24;;;;;;;5.43;4.35;;;;;;;;;;6065741;29;20143;-72
2021/04/20 17:41:32;;;;;;;6.72;5.00;;;;;;;;;;6067380;29;20067;-71
2021/04/20 17:44:45;;;;;;;6.68;4.93;;;;;;;;;;6072097;29;20072;-72
2021/04/20 17:47:55;;;;;;;6.75;4.50;;;;;;;;;;6058807;29;20056;-72
2021/04/20 17:51:04;;;;;;;5.07;4.40;;;;;;;;;;6056335;29;20583;-72
2021/04/20 17:54:14;;;;;;;7.88;4.40;;;;;;;;;;6056968;29;20060;-72
2021/04/20 17:57:23;;;;;;;5.85;3.85;;;;;;;;;;6057786;29;20156;-72
2021/04/20 18:00:30;;;;;;;7.13;4.05;;;;;;;;;;6057512;29;20117;-72
2021/04/20 18:03:39;;;;;;;6.63;3.85;;;;;;;;;;6058468;29;20743;-73
2021/04/20 18:06:50;;;;;;;5.22;3.10;;;;;;;;;;6063330;29;20068;-71
2021/04/20 18:10:07;;;;;;;4.15;3.20;;;;;;;;;;6072671;29;20135;-71